Time;durP1;ratioP1;P1;durP2;ratioP2;P2;SDS_P1;SDS_P2;PMS_P1;PMS_P2;Temp;Humidity;BMP_temperature;BMP_pressure;BME280_temperature;BME280_humidity;BME280_pressure;Samples;Min_cycle;Max_cycle;Signal;HPM_P1;HPM_P2
2021/08/24 00:01:51;;;;;;;1.58;1.48;;;15.40;99.90;;;;;;4931293;29;20414;-69
2021/08/24 00:04:17;;;;;;;1.75;1.65;;;15.50;99.90;;;;;;4901678;29;20409;-70
2021/08/24 00:06:42;;;;;;;1.58;1.48;;;15.40;99.90;;;;;;4932643;29;20407;-70
2021/08/24 00:09:08;;;;;;;1.90;1.80;;;15.40;99.90;;;;;;4921432;29;20485;-70
2021/08/24 00:11:34;;;;;;;1.73;1.63;;;15.40;99.90;;;;;;4937819;29;20776;-70
2021/08/24 00:14:01;;;;;;;1.60;1.50;;;15.30;99.90;;;;;;4928152;29;20406;-70
2021/08/24 00:16:27;;;;;;;1.58;1.48;;;15.30;99.90;;;;;;4904302;29;20407;-69
2021/08/24 00:18:52;;;;;;;1.55;1.45;;;15.30;99.90;;;;;;4898046;29;20407;-70
2021/08/24 00:21:18;;;;;;;1.60;1.40;;;15.30;99.90;;;;;;4912770;29;20984;-70
2021/08/24 00:23:44;;;;;;;1.60;1.50;;;15.30;99.90;;;;;;4928993;29;20769;-70
2021/08/24 00:26:09;;;;;;;1.60;1.42;;;15.20;99.90;;;;;;4897302;29;20400;-70
2021/08/24 00:28:35;;;;;;;2.97;1.83;;;15.20;99.90;;;;;;4912573;29;20416;-70
2021/08/24 00:31:01;;;;;;;1.40;1.30;;;15.10;99.90;;;;;;4929101;29;20407;-71
2021/08/24 00:33:26;;;;;;;1.60;1.50;;;15.10;99.90;;;;;;4897553;29;20424;-70
2021/08/24 00:35:52;;;;;;;1.52;1.42;;;15.10;99.90;;;;;;4881973;29;20407;-70
2021/08/24 00:38:20;;;;;;;1.60;1.50;;;15.10;99.90;;;;;;4902921;29;20392;-69
2021/08/24 00:41:00;;;;;;;1.85;1.65;;;15.10;99.90;;;;;;4896367;29;20527;-69
2021/08/24 00:43:27;;;;;;;1.40;1.30;;;15.10;99.90;;;;;;4926220;29;20392;-69
2021/08/24 00:46:11;;;;;;;1.50;1.40;;;15.10;99.90;;;;;;4911100;29;20503;-69
2021/08/24 00:48:37;;;;;;;1.27;1.17;;;15.10;99.90;;;;;;4912093;29;20402;-70
2021/08/24 00:51:03;;;;;;;1.30;1.20;;;15.10;99.90;;;;;;4928170;29;20391;-69
2021/08/24 00:53:31;;;;;;;1.30;1.20;;;15.20;99.90;;;;;;4928279;29;20410;-70
2021/08/24 00:55:57;;;;;;;1.30;1.20;;;15.10;99.90;;;;;;4919041;29;20817;-69
2021/08/24 00:58:23;;;;;;;1.50;1.40;;;15.10;99.90;;;;;;4930283;29;20511;-70
2021/08/24 01:00:48;;;;;;;1.37;1.20;;;15.10;99.90;;;;;;4948014;29;20389;-70
2021/08/24 01:03:19;;;;;;;1.50;1.40;;;15.00;99.90;;;;;;4950046;29;20464;-69
2021/08/24 01:05:47;;;;;;;1.90;1.60;;;15.00;99.90;;;;;;4917271;29;20398;-69
2021/08/24 01:08:48;;;;;;;1.43;1.30;;;15.00;99.90;;;;;;4898938;29;20467;-69
2021/08/24 01:11:22;;;;;;;1.90;1.20;;;15.00;99.90;;;;;;4909700;29;20403;-69
2021/08/24 01:14:02;;;;;;;1.40;1.20;;;15.00;99.90;;;;;;4914718;29;20428;-70
2021/08/24 01:16:42;;;;;;;1.30;1.20;;;15.00;99.90;;;;;;4888737;29;20427;-69
2021/08/24 01:19:42;;;;;;;0.90;0.90;;;14.90;99.90;;;;;;4896238;29;20469;-69
2021/08/24 01:22:26;;;;;;;1.60;1.27;;;14.90;99.90;;;;;;4922826;29;20408;-69
2021/08/24 01:25:20;;;;;;;1.98;1.40;;;14.80;99.90;;;;;;4918940;29;20415;-69
2021/08/24 01:27:55;;;;;;;1.27;1.17;;;14.80;99.90;;;;;;4906614;29;20427;-69
2021/08/24 01:30:47;;;;;;;1.30;1.20;;;14.80;99.90;;;;;;4913656;29;20453;-69
2021/08/24 01:33:29;;;;;;;1.30;1.20;;;14.80;99.90;;;;;;4916296;29;20402;-69
2021/08/24 01:36:10;;;;;;;1.65;1.35;;;14.70;99.90;;;;;;4916788;29;21228;-69
2021/08/24 01:39:01;;;;;;;1.00;1.00;;;14.70;99.90;;;;;;4912521;29;20420;-68
2021/08/24 01:41:33;;;;;;;1.60;1.30;;;14.70;99.90;;;;;;4921798;29;20427;-69
2021/08/24 01:44:11;;;;;;;1.60;1.27;;;14.60;99.90;;;;;;4905465;29;20400;-69
2021/08/24 01:46:59;;;;;;;1.33;1.20;;;14.60;99.90;;;;;;4926087;29;20399;-69
2021/08/24 01:49:30;;;;;;;1.27;1.17;;;14.60;99.90;;;;;;4906090;29;20415;-68
2021/08/24 01:51:56;;;;;;;1.00;1.00;;;14.60;99.90;;;;;;4903758;29;20403;-68
2021/08/24 01:54:27;;;;;;;1.50;1.25;;;14.50;99.90;;;;;;4906164;29;20406;-68
2021/08/24 01:56:53;;;;;;;1.20;1.10;;;14.50;99.90;;;;;;4913781;29;20413;-68
2021/08/24 01:59:22;;;;;;;0.95;0.95;;;14.50;99.90;;;;;;4898916;29;20476;-69
2021/08/24 02:01:56;;;;;;;1.07;0.87;;;14.50;99.90;;;;;;4914057;29;20477;-67
2021/08/24 02:04:26;;;;;;;1.03;1.03;;;14.50;99.90;;;;;;4932907;29;20424;-68
2021/08/24 02:06:52;;;;;;;1.25;1.08;;;14.50;99.90;;;;;;4914339;29;20468;-68
2021/08/24 02:09:29;;;;;;;1.42;1.30;;;14.50;99.90;;;;;;4905710;29;20413;-69
2021/08/24 02:11:56;;;;;;;1.02;1.02;;;14.50;99.90;;;;;;4905165;29;20411;-69
2021/08/24 02:14:21;;;;;;;1.15;1.10;;;14.50;99.90;;;;;;4914428;29;20410;-67
2021/08/24 02:16:48;;;;;;;0.95;0.95;;;14.50;99.90;;;;;;4909537;29;20568;-68
2021/08/24 02:19:20;;;;;;;1.00;1.00;;;14.40;99.90;;;;;;4927532;29;20415;-69
2021/08/24 02:21:54;;;;;;;1.30;1.20;;;14.40;99.90;;;;;;4926485;29;20403;-68
2021/08/24 02:24:22;;;;;;;1.38;1.25;;;14.40;99.90;;;;;;4911607;29;20419;-68
2021/08/24 02:26:48;;;;;;;0.93;0.93;;;14.30;99.90;;;;;;4905397;29;20417;-68
2021/08/24 02:29:14;;;;;;;0.93;0.93;;;14.30;99.90;;;;;;4903342;29;20416;-69
2021/08/24 02:31:44;;;;;;;1.00;0.90;;;14.20;99.90;;;;;;4894467;29;20408;-68
2021/08/24 02:34:33;;;;;;;1.05;1.02;;;14.30;99.90;;;;;;4895115;29;20419;-68
2021/08/24 02:37:01;;;;;;;1.20;1.10;;;14.30;99.90;;;;;;4916172;29;20405;-68
2021/08/24 02:39:50;;;;;;;1.10;1.00;;;14.30;99.90;;;;;;4920875;29;20393;-68
2021/08/24 02:42:23;;;;;;;1.33;1.23;;;14.30;99.90;;;;;;4887434;29;20400;-69
2021/08/24 02:45:10;;;;;;;0.90;0.90;;;14.30;99.90;;;;;;4915004;29;20409;-68
2021/08/24 02:47:36;;;;;;;1.08;0.98;;;14.30;99.90;;;;;;4928978;29;20406;-67
2021/08/24 02:50:03;;;;;;;1.10;1.10;;;14.30;99.90;;;;;;4900045;29;21024;-69
2021/08/24 02:52:29;;;;;;;1.73;0.90;;;14.30;99.90;;;;;;4914817;29;20961;-69
2021/08/24 02:54:55;;;;;;;1.03;1.03;;;14.30;99.90;;;;;;4912552;29;20433;-67
2021/08/24 02:57:20;;;;;;;1.02;1.02;;;14.40;99.90;;;;;;4889413;29;20458;-68
2021/08/24 02:59:46;;;;;;;1.43;1.30;;;14.30;99.90;;;;;;4909635;29;20928;-69
2021/08/24 03:02:12;;;;;;;1.20;1.10;;;14.40;99.90;;;;;;4927566;29;20407;-68
2021/08/24 03:04:38;;;;;;;2.00;1.07;;;14.30;99.90;;;;;;4895296;29;20981;-68
2021/08/24 03:07:09;;;;;;;1.38;1.27;;;14.30;99.90;;;;;;4894242;29;20520;-68
2021/08/24 03:09:35;;;;;;;1.10;0.90;;;14.30;99.90;;;;;;4894349;29;20819;-68
2021/08/24 03:12:03;;;;;;;1.02;1.02;;;14.20;99.90;;;;;;4899765;28;20428;-68
2021/08/24 03:14:36;;;;;;;1.00;1.00;;;14.20;99.90;;;;;;4946153;29;20421;-68
2021/08/24 03:17:05;;;;;;;1.10;1.10;;;14.20;99.90;;;;;;4912336;29;20404;-69
2021/08/24 03:19:32;;;;;;;1.10;1.10;;;14.20;99.90;;;;;;4879673;29;20407;-68
2021/08/24 03:21:58;;;;;;;1.15;0.95;;;14.20;99.90;;;;;;4893452;29;20621;-67
2021/08/24 03:24:24;;;;;;;1.08;1.02;;;14.20;99.90;;;;;;4894397;29;20471;-68
2021/08/24 03:26:49;;;;;;;1.30;1.03;;;14.10;99.90;;;;;;4895562;29;20416;-68
2021/08/24 03:29:21;;;;;;;1.60;1.10;;;14.10;99.90;;;;;;4902406;29;20906;-67
2021/08/24 03:31:51;;;;;;;1.20;1.10;;;14.10;99.90;;;;;;4893379;29;20406;-68
2021/08/24 03:34:16;;;;;;;1.00;1.00;;;14.10;99.90;;;;;;4878592;29;20964;-68
2021/08/24 03:36:42;;;;;;;0.90;0.90;;;14.10;99.90;;;;;;4904528;29;20407;-68
2021/08/24 03:39:08;;;;;;;1.17;1.07;;;14.10;99.90;;;;;;4902438;29;20454;-68
2021/08/24 03:41:33;;;;;;;3.90;1.05;;;14.00;99.90;;;;;;4929594;29;20410;-68
2021/08/24 03:43:59;;;;;;;1.43;1.23;;;14.10;99.90;;;;;;4910641;29;20404;-68
2021/08/24 03:46:25;;;;;;;0.90;0.90;;;14.10;99.90;;;;;;4927869;29;20398;-67
2021/08/24 03:48:50;;;;;;;1.00;1.00;;;14.00;99.90;;;;;;4932026;29;20414;-68
2021/08/24 03:51:16;;;;;;;1.00;1.00;;;14.00;99.90;;;;;;4949395;29;20482;-67
2021/08/24 03:53:41;;;;;;;0.90;0.90;;;14.00;99.90;;;;;;4915719;29;20417;-68
2021/08/24 03:56:07;;;;;;;1.20;1.10;;;13.90;99.90;;;;;;4931922;29;20386;-67
2021/08/24 03:58:34;;;;;;;1.10;1.10;;;13.90;99.90;;;;;;4924179;29;20402;-67
2021/08/24 04:01:00;;;;;;;2.45;1.00;;;13.90;99.90;;;;;;4916025;29;20816;-66
2021/08/24 04:03:27;;;;;;;1.00;0.90;;;13.90;99.90;;;;;;4919407;29;20408;-69
2021/08/24 04:05:59;;;;;;;1.20;1.10;;;13.90;99.90;;;;;;4932635;29;20816;-67
2021/08/24 04:08:25;;;;;;;1.00;1.00;;;13.90;99.90;;;;;;4931829;29;20478;-67
2021/08/24 04:10:51;;;;;;;1.00;1.00;;;13.90;99.90;;;;;;4916695;29;20405;-67
2021/08/24 04:13:17;;;;;;;0.95;0.95;;;13.90;99.90;;;;;;4940777;29;20518;-67
2021/08/24 04:15:43;;;;;;;1.15;1.05;;;13.90;99.90;;;;;;4903881;29;20438;-67
2021/08/24 04:18:09;;;;;;;1.07;1.00;;;13.80;99.90;;;;;;4912323;29;20879;-66
2021/08/24 04:20:34;;;;;;;0.93;0.93;;;13.80;99.90;;;;;;4912909;29;20923;-68
2021/08/24 04:23:00;;;;;;;1.10;0.90;;;13.80;99.90;;;;;;4929064;29;20407;-66
2021/08/24 04:25:25;;;;;;;0.93;0.93;;;13.80;99.90;;;;;;4930614;29;20507;-68
2021/08/24 04:27:51;;;;;;;1.25;1.05;;;13.80;99.90;;;;;;4897391;29;20497;-66
2021/08/24 04:30:17;;;;;;;1.27;1.17;;;13.80;99.90;;;;;;4915923;29;20416;-67
2021/08/24 04:32:44;;;;;;;1.30;1.20;;;13.80;99.90;;;;;;4914851;29;20412;-68
2021/08/24 04:35:10;;;;;;;0.95;0.95;;;13.70;99.90;;;;;;4882249;29;20451;-66
2021/08/24 04:37:36;;;;;;;1.55;1.10;;;13.70;99.90;;;;;;4913543;29;20498;-68
2021/08/24 04:40:01;;;;;;;0.90;0.90;;;13.70;99.90;;;;;;4925305;29;20413;-67
2021/08/24 04:42:27;;;;;;;1.20;1.10;;;13.70;99.90;;;;;;4915661;29;20406;-66
2021/08/24 04:44:53;;;;;;;1.00;1.00;;;13.70;99.90;;;;;;4912526;29;20415;-68
2021/08/24 04:47:18;;;;;;;1.55;1.45;;;13.60;99.90;;;;;;4911352;29;20410;-68
2021/08/24 04:49:44;;;;;;;1.92;1.17;;;13.70;99.90;;;;;;4913212;29;20407;-69
2021/08/24 04:52:10;;;;;;;0.97;0.97;;;13.60;99.90;;;;;;4896820;29;20404;-67
2021/08/24 04:54:35;;;;;;;1.08;1.00;;;13.70;99.90;;;;;;4917340;29;20406;-67
2021/08/24 04:57:02;;;;;;;1.00;0.93;;;13.70;99.90;;;;;;4925129;29;20406;-67
2021/08/24 04:59:28;;;;;;;1.20;1.10;;;13.70;99.90;;;;;;4894454;29;20408;-67
2021/08/24 05:01:54;;;;;;;1.13;0.90;;;13.70;99.90;;;;;;4909676;29;20456;-68
2021/08/24 05:04:19;;;;;;;1.00;1.00;;;13.70;99.90;;;;;;4915860;29;20827;-69
2021/08/24 05:06:45;;;;;;;1.20;1.17;;;13.70;99.90;;;;;;4899772;29;20468;-68
2021/08/24 05:09:10;;;;;;;1.27;1.17;;;13.70;99.90;;;;;;4949193;29;20421;-67
2021/08/24 05:11:36;;;;;;;3.00;1.10;;;13.70;99.90;;;;;;4937103;29;20459;-69
2021/08/24 05:14:02;;;;;;;3.35;1.10;;;13.70;99.90;;;;;;4906679;29;20498;-68
2021/08/24 05:16:28;;;;;;;1.10;1.00;;;13.70;99.90;;;;;;4930590;29;20397;-68
2021/08/24 05:18:53;;;;;;;1.50;1.27;;;13.70;99.90;;;;;;4930794;29;20414;-68
2021/08/24 05:21:19;;;;;;;1.10;1.03;;;13.80;99.90;;;;;;4936121;28;20412;-68
2021/08/24 05:23:45;;;;;;;1.38;1.27;;;13.80;99.90;;;;;;4906569;29;20433;-69
2021/08/24 05:26:15;;;;;;;0.90;0.90;;;13.80;99.90;;;;;;4886046;29;20481;-67
2021/08/24 05:28:41;;;;;;;1.30;1.05;;;13.70;99.90;;;;;;4905936;29;20745;-68
2021/08/24 05:31:06;;;;;;;0.90;0.90;;;13.70;99.90;;;;;;4928822;29;20398;-67
2021/08/24 05:33:33;;;;;;;1.15;1.08;;;13.70;99.90;;;;;;4928381;29;20425;-66
2021/08/24 05:35:59;;;;;;;1.03;1.00;;;13.70;99.90;;;;;;4929454;29;20402;-68
2021/08/24 05:38:25;;;;;;;1.30;1.20;;;13.70;99.90;;;;;;4911332;29;21146;-67
2021/08/24 05:40:51;;;;;;;1.02;1.02;;;13.70;99.90;;;;;;4906537;29;20394;-67
2021/08/24 05:43:16;;;;;;;0.90;0.90;;;13.80;99.90;;;;;;4893597;29;20415;-68
2021/08/24 05:45:42;;;;;;;0.98;0.95;;;13.80;99.90;;;;;;4910864;29;20410;-67
2021/08/24 05:48:07;;;;;;;1.03;1.00;;;14.00;99.90;;;;;;4895440;29;20427;-69
2021/08/24 05:50:33;;;;;;;1.25;1.02;;;14.10;99.90;;;;;;4928502;29;21427;-69
2021/08/24 05:53:00;;;;;;;1.05;1.00;;;14.20;99.90;;;;;;4895714;29;20407;-69
2021/08/24 05:55:25;;;;;;;1.35;1.20;;;14.20;99.90;;;;;;4921790;29;20457;-69
2021/08/24 05:57:52;;;;;;;1.10;1.00;;;14.30;99.90;;;;;;4903039;29;20411;-70
2021/08/24 06:00:18;;;;;;;13.18;2.72;;;14.30;99.90;;;;;;4907105;29;20444;-68
2021/08/24 06:02:44;;;;;;;2.15;1.27;;;14.40;99.90;;;;;;4921072;29;20401;-68
2021/08/24 06:05:09;;;;;;;4.20;1.10;;;14.40;99.90;;;;;;4926220;29;20409;-68
2021/08/24 06:07:37;;;;;;;1.30;1.13;;;14.40;99.90;;;;;;4910665;29;20404;-68
2021/08/24 06:10:02;;;;;;;1.08;1.08;;;14.50;99.90;;;;;;4911667;29;20404;-68
2021/08/24 06:12:28;;;;;;;4.57;1.50;;;14.50;99.90;;;;;;4902664;29;20413;-67
2021/08/24 06:14:54;;;;;;;0.90;0.90;;;14.50;99.90;;;;;;4896833;29;20415;-68
2021/08/24 06:17:19;;;;;;;5.30;1.85;;;14.60;99.90;;;;;;4929738;29;20394;-69
2021/08/24 06:19:45;;;;;;;0.90;0.90;;;14.60;99.90;;;;;;4929742;29;20402;-69
2021/08/24 06:22:11;;;;;;;3.60;1.38;;;14.60;99.90;;;;;;4897556;29;20772;-68
2021/08/24 06:24:38;;;;;;;2.20;1.50;;;14.70;99.90;;;;;;4900774;29;20423;-68
2021/08/24 06:27:06;;;;;;;1.80;1.30;;;14.80;99.90;;;;;;4913794;29;20469;-69
2021/08/24 06:29:32;;;;;;;1.95;1.40;;;14.90;99.90;;;;;;4922504;29;20436;-68
2021/08/24 06:32:00;;;;;;;2.60;1.55;;;15.00;99.90;;;;;;4905858;29;20405;-69
2021/08/24 06:34:26;;;;;;;1.20;1.10;;;15.10;99.90;;;;;;4897180;29;20416;-68
2021/08/24 06:36:52;;;;;;;2.95;1.60;;;15.20;99.90;;;;;;4904387;29;20407;-68
2021/08/24 06:39:18;;;;;;;1.30;1.20;;;15.30;99.90;;;;;;4926407;29;20458;-68
2021/08/24 06:41:44;;;;;;;1.30;1.20;;;15.40;99.90;;;;;;4905129;29;20413;-69
2021/08/24 06:44:10;;;;;;;2.33;1.57;;;15.60;99.90;;;;;;4944401;29;20410;-68
2021/08/24 06:46:35;;;;;;;5.57;1.85;;;15.70;99.90;;;;;;4912670;29;20438;-69
2021/08/24 06:49:01;;;;;;;3.20;1.50;;;15.80;99.90;;;;;;4946955;29;20429;-69
2021/08/24 06:51:27;;;;;;;2.00;1.48;;;15.90;99.90;;;;;;4897698;29;20788;-67
2021/08/24 06:53:53;;;;;;;1.47;1.33;;;16.00;99.90;;;;;;4928649;29;20429;-67
2021/08/24 06:56:18;;;;;;;0.90;0.90;;;16.10;99.90;;;;;;4929536;29;20821;-68
2021/08/24 06:58:44;;;;;;;1.37;1.27;;;16.30;99.90;;;;;;4912828;29;20402;-70
2021/08/24 07:01:20;;;;;;;1.50;1.10;;;16.40;99.90;;;;;;4914263;29;20397;-69
2021/08/24 07:03:46;;;;;;;1.55;1.45;;;16.50;99.90;;;;;;4909539;29;20411;-69
2021/08/24 07:06:12;;;;;;;2.13;1.37;;;16.70;99.90;;;;;;4925315;29;20850;-68
2021/08/24 07:08:38;;;;;;;0.93;0.93;;;16.80;99.90;;;;;;4913545;29;20414;-69
2021/08/24 07:11:03;;;;;;;1.23;1.13;;;16.90;99.90;;;;;;4914050;29;20465;-68
2021/08/24 07:13:30;;;;;;;4.82;1.50;;;17.00;99.90;;;;;;4905838;29;20831;-69
2021/08/24 07:15:56;;;;;;;1.30;1.02;;;17.10;99.90;;;;;;4897672;29;20417;-68
2021/08/24 07:18:21;;;;;;;2.47;1.20;;;17.30;99.90;;;;;;4913707;29;20460;-69
2021/08/24 07:20:51;;;;;;;1.13;1.00;;;17.50;99.90;;;;;;4945815;29;20417;-68
2021/08/24 07:23:16;;;;;;;1.40;1.02;;;17.60;99.90;;;;;;4929842;29;20413;-68
2021/08/24 07:25:42;;;;;;;0.90;0.90;;;17.70;99.90;;;;;;4933133;29;20461;-67
2021/08/24 07:28:10;;;;;;;1.03;1.03;;;17.90;99.90;;;;;;4932513;29;20425;-68
2021/08/24 07:30:42;;;;;;;0.90;0.90;;;18.00;99.90;;;;;;4932818;29;20927;-68
2021/08/24 07:33:08;;;;;;;1.60;1.23;;;18.10;99.90;;;;;;4918029;29;20406;-69
2021/08/24 07:35:34;;;;;;;1.63;0.93;;;18.10;99.90;;;;;;4903357;29;20426;-68
2021/08/24 07:38:01;;;;;;;1.10;1.00;;;18.20;99.90;;;;;;4901205;29;20406;-69
2021/08/24 07:40:27;;;;;;;1.13;1.02;;;18.30;99.90;;;;;;4933273;29;20398;-69
2021/08/24 07:42:53;;;;;;;1.35;1.20;;;18.30;99.90;;;;;;4922058;29;20416;-69
2021/08/24 07:45:18;;;;;;;1.35;1.10;;;18.30;99.90;;;;;;4881998;29;20411;-67
2021/08/24 07:47:44;;;;;;;1.00;1.00;;;18.30;99.90;;;;;;4898350;29;20427;-69
2021/08/24 07:50:10;;;;;;;1.27;1.17;;;18.40;99.90;;;;;;4897672;29;20404;-69
2021/08/24 07:52:35;;;;;;;1.40;1.10;;;18.50;99.90;;;;;;4913830;29;20395;-67
2021/08/24 07:55:01;;;;;;;1.40;1.10;;;18.60;99.90;;;;;;4908848;29;20473;-68
2021/08/24 07:57:27;;;;;;;0.90;0.90;;;18.50;99.90;;;;;;4934144;29;20946;-68
2021/08/24 07:59:52;;;;;;;1.70;1.30;;;18.50;99.90;;;;;;4951942;29;20425;-68
2021/08/24 08:02:18;;;;;;;1.20;1.10;;;18.60;99.90;;;;;;4916670;28;21091;-69
2021/08/24 08:04:44;;;;;;;1.02;1.02;;;18.50;99.90;;;;;;4924475;29;20445;-69
2021/08/24 08:07:10;;;;;;;1.38;1.17;;;18.50;99.90;;;;;;4895684;29;20419;-69
2021/08/24 08:09:36;;;;;;;1.17;1.05;;;18.40;99.90;;;;;;4897612;29;20532;-68
2021/08/24 08:12:02;;;;;;;1.33;1.10;;;18.40;99.90;;;;;;4889506;29;20909;-67
2021/08/24 08:14:27;;;;;;;1.15;1.05;;;18.50;99.90;;;;;;4930931;29;20421;-68
2021/08/24 08:16:53;;;;;;;0.90;0.90;;;18.50;99.90;;;;;;4915579;29;20405;-68
2021/08/24 08:19:19;;;;;;;1.30;1.20;;;18.50;99.90;;;;;;4932390;29;20938;-69
2021/08/24 08:21:44;;;;;;;1.27;1.17;;;18.60;99.90;;;;;;4931631;29;20412;-68
2021/08/24 08:24:10;;;;;;;1.30;1.20;;;18.70;99.90;;;;;;4900852;29;20416;-68
2021/08/24 08:26:36;;;;;;;5.85;1.30;;;18.70;99.90;;;;;;4948988;29;20796;-68
2021/08/24 08:29:05;;;;;;;1.80;1.10;;;18.80;99.90;;;;;;4924115;29;20415;-68
2021/08/24 08:31:31;;;;;;;2.75;1.00;;;18.90;99.90;;;;;;4897651;29;20404;-69
2021/08/24 08:33:57;;;;;;;0.95;0.90;;;19.00;99.90;;;;;;4904922;29;20427;-69
2021/08/24 08:36:23;;;;;;;0.93;0.90;;;19.00;99.90;;;;;;4914696;29;21097;-69
2021/08/24 08:38:49;;;;;;;1.00;1.00;;;18.90;99.90;;;;;;4915584;29;20470;-69
2021/08/24 08:41:14;;;;;;;4.20;2.03;;;18.80;99.90;;;;;;4932061;29;20402;-69
2021/08/24 08:43:40;;;;;;;1.75;1.27;;;18.90;99.90;;;;;;4939619;29;20419;-68
2021/08/24 08:46:28;;;;;;;7.20;1.77;;;18.80;99.90;;;;;;4928966;29;20392;-68
2021/08/24 08:49:39;;;;;;;2.13;1.23;;;18.80;99.90;;;;;;4899186;29;20829;-69
2021/08/24 08:52:39;;;;;;;2.63;1.45;;;18.80;99.90;;;;;;4926375;29;20926;-68
2021/08/24 08:55:12;;;;;;;3.55;1.40;;;18.90;99.90;;;;;;4896677;29;20408;-68
2021/08/24 08:57:45;;;;;;;2.00;1.20;;;19.10;99.90;;;;;;4897205;29;20470;-68
2021/08/24 09:00:20;;;;;;;1.40;1.30;;;19.30;99.90;;;;;;4898316;29;20403;-68
2021/08/24 09:02:54;;;;;;;3.10;1.57;;;19.30;99.90;;;;;;4915105;29;20404;-68
2021/08/24 09:05:23;;;;;;;10.80;2.15;;;19.40;99.90;;;;;;4922604;29;20411;-68
2021/08/24 09:07:50;;;;;;;3.90;1.38;;;19.40;99.90;;;;;;4911500;29;20410;-68
2021/08/24 09:10:41;;;;;;;4.20;1.30;;;19.50;99.90;;;;;;4881098;29;20434;-69
2021/08/24 09:13:16;;;;;;;1.63;1.10;;;19.50;99.90;;;;;;4897412;29;20400;-68
2021/08/24 09:15:48;;;;;;;1.67;1.43;;;19.40;99.90;;;;;;4880906;29;20482;-68
2021/08/24 09:18:18;;;;;;;6.22;1.63;;;19.40;99.90;;;;;;4880712;29;20416;-70
2021/08/24 09:20:56;;;;;;;1.38;1.17;;;19.50;99.90;;;;;;4896459;29;20404;-70
2021/08/24 09:23:22;;;;;;;1.30;1.15;;;19.50;99.90;;;;;;4881874;29;20407;-69
2021/08/24 09:25:50;;;;;;;1.10;1.10;;;19.70;99.90;;;;;;4911355;29;20450;-69
2021/08/24 09:28:21;;;;;;;0.97;0.97;;;19.80;99.90;;;;;;4914118;29;20952;-69
2021/08/24 09:30:47;;;;;;;1.85;1.30;;;19.70;99.90;;;;;;4930744;29;20398;-69
2021/08/24 09:33:13;;;;;;;1.20;0.88;;;19.70;99.90;;;;;;4915679;29;20412;-69
2021/08/24 09:35:42;;;;;;;1.45;1.35;;;19.80;99.90;;;;;;4915299;29;20457;-69
2021/08/24 09:38:24;;;;;;;1.50;1.20;;;19.90;99.90;;;;;;4916795;29;20404;-69
2021/08/24 09:40:57;;;;;;;1.13;1.02;;;19.90;99.90;;;;;;4915727;29;20772;-68
2021/08/24 09:43:24;;;;;;;1.20;1.10;;;19.90;99.90;;;;;;4894606;29;20399;-70
2021/08/24 09:46:10;;;;;;;2.90;1.23;;;19.90;99.90;;;;;;4926798;29;20400;-68
2021/08/24 09:49:05;;;;;;;1.05;0.98;;;20.00;99.90;;;;;;4910275;29;20427;-69
2021/08/24 09:51:52;;;;;;;1.50;0.90;;;20.10;99.90;;;;;;4911722;29;21103;-69
2021/08/24 09:54:31;;;;;;;0.90;0.90;;;20.20;99.90;;;;;;4928220;29;20419;-68
2021/08/24 09:57:28;;;;;;;1.25;1.00;;;20.30;99.90;;;;;;4925583;29;20402;-68
2021/08/24 09:59:58;;;;;;;1.60;1.30;;;20.40;99.90;;;;;;4929510;29;20413;-68
2021/08/24 10:02:40;;;;;;;1.60;1.10;;;20.50;99.90;;;;;;4929441;28;20414;-70
2021/08/24 10:05:14;;;;;;;1.40;1.00;;;20.70;99.90;;;;;;4946185;29;20406;-71
2021/08/24 10:07:44;;;;;;;0.90;0.90;;;20.90;99.90;;;;;;4913700;29;20498;-69
2021/08/24 10:10:31;;;;;;;0.90;0.90;;;21.10;99.90;;;;;;4895374;29;20402;-69
2021/08/24 10:12:58;;;;;;;1.52;1.00;;;21.40;99.90;;;;;;4902601;29;20408;-69
2021/08/24 10:15:35;;;;;;;0.82;0.82;;;21.60;99.90;;;;;;4909591;29;20427;-69
2021/08/24 10:18:22;;;;;;;0.77;0.77;;;21.80;99.90;;;;;;4894791;29;20486;-71
2021/08/24 10:20:56;;;;;;;1.08;1.08;;;22.00;99.90;;;;;;4882317;29;20404;-69
2021/08/24 10:23:28;;;;;;;2.05;1.30;;;22.00;99.90;;;;;;4927359;29;20411;-70
2021/08/24 10:25:57;;;;;;;1.33;1.10;;;22.00;99.90;;;;;;4892717;29;20916;-70
2021/08/24 10:28:28;;;;;;;1.80;1.30;;;21.90;99.90;;;;;;4913547;29;20436;-69
2021/08/24 10:30:57;;;;;;;1.10;1.00;;;22.20;99.90;;;;;;4929165;29;20402;-70
2021/08/24 10:33:24;;;;;;;2.60;1.10;;;22.40;99.90;;;;;;4913626;29;20505;-69
2021/08/24 10:35:53;;;;;;;1.10;1.00;;;22.40;99.90;;;;;;4919957;29;20430;-70
2021/08/24 10:38:19;;;;;;;1.08;0.98;;;22.60;99.90;;;;;;4906227;29;20817;-67
2021/08/24 10:40:45;;;;;;;1.00;1.00;;;22.90;99.90;;;;;;4898248;29;20485;-68
2021/08/24 10:43:13;;;;;;;0.93;0.93;;;23.20;99.90;;;;;;4911109;29;20962;-70
2021/08/24 10:45:40;;;;;;;1.33;1.23;;;23.30;99.90;;;;;;4929148;29;20397;-69
2021/08/24 10:48:33;;;;;;;1.30;1.20;;;23.50;99.90;;;;;;4929259;29;20813;-69
2021/08/24 10:51:32;;;;;;;2.80;1.48;;;23.50;99.90;;;;;;4928089;29;20398;-68
2021/08/24 10:54:22;;;;;;;1.83;1.27;;;23.60;99.90;;;;;;4898308;29;20943;-69
2021/08/24 10:57:10;;;;;;;1.75;0.95;;;23.90;99.90;;;;;;4902054;29;20876;-68
2021/08/24 11:00:01;;;;;;;1.30;1.20;;;24.30;99.90;;;;;;4897277;29;20401;-68
2021/08/24 11:02:56;;;;;;;1.30;1.20;;;24.60;99.90;;;;;;4896749;29;20402;-70
2021/08/24 11:05:29;;;;;;;3.10;1.50;;;25.00;99.90;;;;;;4916098;29;20816;-69
2021/08/24 11:08:14;;;;;;;4.05;1.42;;;25.20;99.90;;;;;;4928905;29;20987;-69
2021/08/24 11:10:47;;;;;;;1.27;1.17;;;25.10;99.90;;;;;;4929348;29;20484;-69
2021/08/24 11:13:25;;;;;;;1.23;1.13;;;25.00;99.90;;;;;;4921050;29;20908;-69
2021/08/24 11:16:07;;;;;;;1.48;1.38;;;25.20;99.90;;;;;;4946442;29;20792;-68
2021/08/24 11:18:50;;;;;;;1.25;1.17;;;25.40;99.90;;;;;;4912964;29;20505;-69
2021/08/24 11:21:37;;;;;;;1.10;1.10;;;25.70;99.90;;;;;;4897075;29;20414;-69
2021/08/24 11:24:21;;;;;;;1.20;1.10;;;25.70;99.90;;;;;;4926930;29;20401;-68
2021/08/24 11:26:58;;;;;;;1.37;1.27;;;25.50;99.90;;;;;;4938534;29;20402;-68
2021/08/24 11:29:34;;;;;;;1.00;1.00;;;25.50;99.90;;;;;;4917934;29;20902;-70
2021/08/24 11:32:00;;;;;;;1.58;1.48;;;25.80;99.90;;;;;;4909283;29;21040;-69
2021/08/24 11:34:33;;;;;;;1.13;1.13;;;25.90;99.90;;;;;;4930406;29;20417;-68
2021/08/24 11:37:05;;;;;;;1.40;1.13;;;25.80;99.90;;;;;;4912753;29;20405;-69
2021/08/24 11:39:47;;;;;;;1.05;1.05;;;26.00;99.90;;;;;;4927157;29;20932;-69
2021/08/24 11:42:26;;;;;;;1.30;1.20;;;26.20;99.90;;;;;;4916743;29;21023;-69
2021/08/24 11:44:54;;;;;;;1.00;1.00;;;26.20;99.90;;;;;;4909892;29;20407;-70
2021/08/24 11:47:23;;;;;;;1.33;1.23;;;25.90;99.90;;;;;;4908777;29;20407;-68
2021/08/24 11:50:09;;;;;;;1.95;1.35;;;25.50;99.90;;;;;;4910351;29;20500;-67
2021/08/24 11:52:47;;;;;;;2.13;1.40;;;25.50;99.90;;;;;;4909110;29;20763;-69
2021/08/24 11:55:33;;;;;;;1.70;1.27;;;25.80;99.90;;;;;;4926126;29;20427;-68
2021/08/24 11:58:24;;;;;;;1.10;1.10;;;26.10;99.90;;;;;;4913665;29;20764;-70
2021/08/24 12:00:53;;;;;;;1.10;1.10;;;26.40;99.90;;;;;;4912264;29;20421;-69
2021/08/24 12:03:22;;;;;;;1.35;1.25;;;26.50;99.90;;;;;;4927804;29;20525;-69
2021/08/24 12:05:51;;;;;;;0.93;0.90;;;26.90;99.90;;;;;;4913144;29;20476;-68
2021/08/24 12:08:22;;;;;;;1.40;1.30;;;27.10;99.90;;;;;;4896544;28;20406;-70
2021/08/24 12:10:50;;;;;;;9.88;1.67;;;27.30;99.90;;;;;;4919922;29;20411;-68
2021/08/24 12:13:37;;;;;;;1.50;1.40;;;27.00;99.80;;;;;;4906252;29;20733;-69
2021/08/24 12:16:21;;;;;;;2.25;1.42;;;26.50;99.80;;;;;;4913138;29;20410;-69
2021/08/24 12:18:51;;;;;;;1.73;1.38;;;26.10;99.90;;;;;;4948878;29;20409;-70
2021/08/24 12:21:28;;;;;;;1.10;1.10;;;26.40;99.90;;;;;;4916518;29;20971;-70
2021/08/24 12:23:55;;;;;;;0.98;0.98;;;26.90;99.60;;;;;;4932016;29;20792;-69
2021/08/24 12:26:29;;;;;;;1.80;1.40;;;27.30;99.90;;;;;;4900369;29;20409;-70
2021/08/24 12:29:00;;;;;;;1.77;1.50;;;27.80;99.90;;;;;;4901093;29;20471;-70
2021/08/24 12:31:45;;;;;;;1.45;1.35;;;27.80;99.90;;;;;;4914304;29;20450;-70
2021/08/24 12:34:32;;;;;;;1.50;1.40;;;27.30;97.00;;;;;;4883068;29;20423;-71
2021/08/24 12:36:58;;;;;;;1.02;1.02;;;27.00;97.70;;;;;;4948608;29;20405;-69
2021/08/24 12:39:50;;;;;;;0.77;0.77;;;26.60;97.70;;;;;;4931964;29;20466;-69
2021/08/24 12:42:29;;;;;;;1.48;1.38;;;26.20;99.40;;;;;;4889434;29;20510;-69
2021/08/24 12:45:00;;;;;;;1.10;1.10;;;26.10;99.90;;;;;;4897754;29;20417;-70
2021/08/24 12:47:49;;;;;;;1.10;1.10;;;26.20;99.90;;;;;;4929636;29;21068;-70
2021/08/24 12:50:14;;;;;;;1.33;1.23;;;26.70;99.90;;;;;;4930105;29;20486;-71
2021/08/24 12:52:41;;;;;;;1.60;1.50;;;27.20;99.90;;;;;;4913830;29;20479;-69
2021/08/24 12:55:21;;;;;;;1.40;1.30;;;27.70;99.60;;;;;;4881773;29;20435;-69
2021/08/24 12:57:47;;;;;;;1.15;1.13;;;28.00;99.90;;;;;;4911024;29;20802;-69
2021/08/24 13:00:37;;;;;;;1.15;1.10;;;28.10;99.50;;;;;;4887933;29;20402;-70
2021/08/24 13:03:19;;;;;;;1.83;1.42;;;27.90;96.60;;;;;;4910232;29;20896;-70
2021/08/24 13:05:45;;;;;;;1.60;1.50;;;27.50;96.70;;;;;;4915772;29;20406;-69
2021/08/24 13:08:26;;;;;;;1.17;1.17;;;26.90;94.60;;;;;;4915196;29;20409;-70